KDTW/DTW METAR and TAF weather

Enter ICAO airport designator
Station Type Date Time Source
KDTW METAR 2019/08/25 01:53 UTC NOAA

KDTW 250153Z 12004KT 10SM CLR 18/11 A3027 RMK AO2 SLP249 T01830111


Station Type Date Time Source
KDTW Decoded METAR 2019/08/25 01:53 UTC NOAA

Station name not available
Aug 24, 2019 - 09:53 PM EDT / 2019.08.25 0153 UTC
Wind: from the ESE (120 degrees) at 5 MPH (4 KT):0
Visibility: 10 mile(s):0
Sky conditions: clear
Temperature: 64.9 F (18.3 C)
Dew Point: 52.0 F (11.1 C)
Relative Humidity: 62%
Pressure (altimeter): 30.27 in. Hg (1025 hPa)
ob: KDTW 250153Z 12004KT 10SM CLR 18/11 A3027 RMK AO2 SLP249 T01830111
cycle: 2

Station Type Date Time Source
KDTW TAF 2019/08/24 21:18 UTC NOAA

TAF
AMD KDTW 242116Z 2421/2524 08008KT P6SM SCT050
FM250000 04006KT P6SM FEW200
FM251100 09006KT P6SM FEW035
FM251500 12008KT P6SM SCT045

Example: see airport list